createdAt,value
2022-09-15T00:02:11.194Z,1.70
2022-09-15T00:04:42.033Z,1.70
2022-09-15T00:07:13.014Z,1.80
2022-09-15T00:09:43.715Z,2.20
2022-09-15T00:12:14.556Z,1.30
2022-09-15T00:14:45.397Z,1.60
2022-09-15T00:17:16.153Z,1.60
2022-09-15T00:19:46.922Z,2.00
2022-09-15T00:22:18.305Z,1.30
2022-09-15T00:24:49.530Z,2.50
2022-09-15T00:27:20.261Z,1.50
2022-09-15T00:29:50.949Z,1.40
2022-09-15T00:32:21.560Z,1.50
2022-09-15T00:34:53.912Z,1.70
2022-09-15T00:37:24.596Z,1.60
2022-09-15T00:39:55.460Z,1.20
2022-09-15T00:42:26.905Z,1.10
2022-09-15T00:44:59.857Z,2.50
2022-09-15T00:47:35.115Z,1.30
2022-09-15T00:50:11.513Z,1.50
2022-09-15T00:52:45.406Z,2.30
2022-09-15T00:55:22.003Z,1.40
2022-09-15T00:57:59.981Z,1.30
2022-09-15T01:00:31.536Z,2.20
2022-09-15T01:03:03.232Z,1.40
2022-09-15T01:05:37.442Z,2.00
2022-09-15T01:08:11.845Z,1.40
2022-09-15T01:10:43.332Z,1.40
2022-09-15T01:13:16.449Z,1.20
2022-09-15T01:15:57.252Z,1.20
2022-09-15T01:18:35.108Z,1.80
2022-09-15T01:21:18.212Z,1.30
2022-09-15T01:24:25.024Z,1.20
2022-09-15T01:27:30.888Z,1.90
2022-09-15T01:30:10.843Z,1.40
2022-09-15T01:33:04.943Z,1.40
2022-09-15T01:35:58.233Z,1.50
2022-09-15T01:38:38.219Z,1.30
2022-09-15T01:41:15.375Z,1.20
2022-09-15T01:43:51.575Z,1.30
2022-09-15T01:46:28.893Z,1.70
2022-09-15T01:49:02.111Z,2.70
2022-09-15T01:51:35.314Z,1.30
2022-09-15T01:54:08.881Z,1.40
2022-09-15T01:59:13.309Z,1.40
2022-09-15T02:01:47.377Z,1.30
2022-09-15T02:04:24.009Z,1.20
2022-09-15T02:07:02.582Z,1.30
2022-09-15T02:09:38.038Z,1.10
2022-09-15T02:12:15.057Z,1.30
2022-09-15T02:14:56.849Z,1.20
2022-09-15T02:17:31.312Z,0.90
2022-09-15T02:20:11.396Z,1.40
2022-09-15T02:22:43.679Z,1.20
2022-09-15T02:25:18.718Z,1.00
2022-09-15T02:27:54.892Z,0.80
2022-09-15T02:30:26.185Z,0.90
2022-09-15T02:33:00.501Z,1.40
2022-09-15T02:35:34.933Z,1.30
2022-09-15T02:38:09.145Z,1.80
2022-09-15T02:40:43.537Z,2.20
2022-09-15T02:43:18.179Z,1.50
2022-09-15T02:45:49.817Z,1.50
2022-09-15T02:48:21.942Z,2.70
2022-09-15T02:50:52.593Z,1.00
2022-09-15T02:53:23.187Z,1.10
2022-09-15T02:55:53.800Z,1.30
2022-09-15T02:58:24.733Z,1.20
2022-09-15T03:00:56.427Z,1.00
2022-09-15T03:03:27.508Z,1.10
2022-09-15T03:06:16.677Z,1.50
2022-09-15T03:08:51.099Z,1.00
2022-09-15T03:11:24.342Z,1.10
2022-09-15T03:13:58.436Z,1.00
2022-09-15T03:16:31.083Z,1.20
2022-09-15T03:19:02.276Z,1.30
2022-09-15T03:21:33.009Z,1.10
2022-09-15T03:24:04.064Z,1.60
2022-09-15T03:26:34.704Z,1.90
2022-09-15T03:29:05.904Z,1.20
2022-09-15T03:31:36.714Z,1.00
2022-09-15T03:34:08.049Z,1.10
2022-09-15T03:36:38.782Z,2.00
2022-09-15T03:39:09.719Z,1.30
2022-09-15T03:41:40.321Z,0.80
2022-09-15T03:44:10.992Z,1.70
2022-09-15T03:46:41.950Z,2.50
2022-09-15T03:49:12.757Z,1.80
2022-09-15T03:51:43.412Z,2.40
2022-09-15T03:54:14.456Z,4.00
2022-09-15T03:56:47.393Z,10.30
2022-09-15T03:59:20.814Z,5.70
2022-09-15T04:01:51.700Z,3.00
2022-09-15T04:04:25.169Z,4.50
2022-09-15T04:06:56.193Z,5.70
2022-09-15T04:09:27.963Z,2.00
2022-09-15T04:11:58.585Z,6.20
2022-09-15T04:14:29.265Z,6.30
2022-09-15T04:16:59.959Z,2.80
2022-09-15T04:19:31.149Z,3.00
2022-09-15T04:22:02.005Z,5.80
2022-09-15T04:24:33.032Z,5.30
2022-09-15T04:27:03.773Z,2.50
2022-09-15T04:29:34.716Z,4.90
2022-09-15T04:32:05.969Z,3.60
2022-09-15T04:34:41.221Z,2.80
2022-09-15T04:37:13.058Z,2.60
2022-09-15T04:39:44.584Z,3.30
2022-09-15T04:42:15.758Z,4.70
2022-09-15T04:44:46.583Z,4.00
2022-09-15T04:47:17.582Z,1.90
2022-09-15T04:49:48.707Z,6.00
2022-09-15T04:52:19.964Z,3.10
2022-09-15T04:54:50.596Z,2.50
2022-09-15T04:57:21.328Z,1.50
2022-09-15T04:59:51.957Z,2.30
2022-09-15T05:02:22.966Z,2.40
2022-09-15T05:04:54.112Z,2.50
2022-09-15T05:07:24.791Z,2.20
2022-09-15T05:09:55.679Z,1.80
2022-09-15T05:12:26.661Z,2.60
2022-09-15T05:14:57.386Z,7.80
2022-09-15T05:17:31.129Z,1.30
2022-09-15T05:20:02.969Z,1.40
2022-09-15T05:22:36.254Z,1.10
2022-09-15T05:25:10.261Z,3.00
2022-09-15T05:27:41.133Z,2.30
2022-09-15T05:30:36.849Z,1.30
2022-09-15T05:33:05.168Z,1.10
2022-09-15T05:35:35.779Z,2.30
2022-09-15T05:38:06.779Z,0.60
2022-09-15T05:40:37.454Z,1.40
2022-09-15T05:43:08.160Z,1.20
2022-09-15T05:45:38.778Z,1.20
2022-09-15T05:48:09.961Z,0.90
2022-09-15T05:50:49.518Z,2.00
2022-09-15T05:53:20.656Z,1.20
2022-09-15T05:55:55.375Z,0.70
2022-09-15T05:58:26.635Z,0.90
2022-09-15T06:00:57.896Z,0.70
2022-09-15T06:03:30.985Z,1.30
2022-09-15T06:06:06.805Z,2.00
2022-09-15T06:08:43.641Z,1.90
2022-09-15T06:11:16.903Z,0.90
2022-09-15T06:13:47.961Z,1.10
2022-09-15T06:16:20.563Z,0.50
2022-09-15T06:18:53.355Z,0.80
2022-09-15T06:21:26.719Z,0.80
2022-09-15T06:23:59.001Z,0.90
2022-09-15T06:26:30.639Z,0.90
2022-09-15T06:29:03.306Z,0.50
2022-09-15T06:31:36.189Z,1.00
2022-09-15T06:34:07.164Z,1.30
2022-09-15T06:36:39.322Z,1.10
2022-09-15T06:39:10.920Z,0.70
2022-09-15T06:42:01.745Z,0.90
2022-09-15T06:44:32.414Z,0.40
2022-09-15T06:47:03.249Z,0.70
2022-09-15T06:49:34.137Z,0.70
2022-09-15T06:52:05.221Z,0.90
2022-09-15T06:54:35.975Z,0.90
2022-09-15T06:57:07.153Z,0.40
2022-09-15T06:59:37.925Z,0.70
2022-09-15T07:02:10.238Z,0.70
2022-09-15T07:04:41.012Z,0.70
2022-09-15T07:07:11.814Z,1.40
2022-09-15T07:09:46.016Z,1.10
2022-09-15T07:12:19.135Z,0.60
2022-09-15T07:14:49.831Z,0.60
2022-09-15T07:17:20.497Z,0.70
2022-09-15T07:19:51.144Z,0.80
2022-09-15T07:22:21.816Z,1.60
2022-09-15T07:24:52.438Z,0.90
2022-09-15T07:27:26.930Z,0.70
2022-09-15T07:29:57.665Z,0.40
2022-09-15T07:32:28.403Z,0.70
2022-09-15T07:34:59.245Z,0.70
2022-09-15T07:37:29.935Z,0.50
2022-09-15T07:40:00.869Z,0.70
2022-09-15T07:42:35.426Z,0.50
2022-09-15T07:45:07.980Z,0.80
2022-09-15T07:47:38.781Z,0.70
2022-09-15T07:50:11.031Z,0.60
2022-09-15T07:52:41.780Z,0.70
2022-09-15T07:55:13.038Z,0.90
2022-09-15T07:57:43.769Z,1.20
2022-09-15T08:00:17.537Z,0.50
2022-09-15T08:02:48.657Z,0.60
2022-09-15T08:05:19.565Z,0.70
2022-09-15T08:07:50.509Z,0.80
2022-09-15T08:10:21.966Z,0.60
2022-09-15T08:12:53.007Z,0.70
2022-09-15T08:15:24.265Z,1.30
2022-09-15T08:17:55.443Z,0.60
2022-09-15T08:20:26.348Z,0.60
2022-09-15T08:22:57.771Z,1.10
2022-09-15T08:25:28.864Z,0.60
2022-09-15T08:28:00.133Z,0.90
2022-09-15T08:30:31.269Z,0.90
2022-09-15T08:33:02.094Z,1.40
2022-09-15T08:35:34.422Z,1.50
2022-09-15T08:38:05.096Z,0.70
2022-09-15T08:40:38.697Z,0.80
2022-09-15T08:43:18.893Z,0.60
2022-09-15T08:45:55.023Z,1.30
2022-09-15T08:48:31.685Z,0.90
2022-09-15T08:51:08.155Z,0.50
2022-09-15T08:53:43.807Z,0.60
2022-09-15T08:56:18.218Z,0.70
2022-09-15T08:58:49.564Z,0.70
2022-09-15T09:01:30.890Z,0.50
2022-09-15T09:04:20.120Z,0.90
2022-09-15T09:07:00.322Z,0.80
2022-09-15T09:09:40.443Z,0.60
2022-09-15T09:12:26.755Z,0.80
2022-09-15T09:15:16.027Z,0.60
2022-09-15T09:18:08.185Z,1.20
2022-09-15T09:20:50.103Z,0.90
2022-09-15T09:23:26.414Z,0.80
2022-09-15T09:25:58.865Z,0.90
2022-09-15T09:28:37.273Z,0.70
2022-09-15T09:31:18.500Z,0.80
2022-09-15T09:33:57.166Z,0.70
2022-09-15T09:36:28.677Z,0.90
2022-09-15T09:38:59.921Z,1.10
2022-09-15T09:41:36.869Z,1.00
2022-09-15T09:44:12.196Z,1.40
2022-09-15T09:46:43.421Z,1.50
2022-09-15T09:49:23.207Z,1.00
2022-09-15T09:51:55.403Z,0.70
2022-09-15T09:54:28.666Z,0.90
2022-09-15T09:57:15.062Z,1.10
2022-09-15T09:59:47.814Z,1.90
2022-09-15T10:02:21.307Z,0.90
2022-09-15T10:07:25.787Z,1.40
2022-09-15T10:09:59.384Z,1.40
2022-09-15T10:15:06.858Z,1.30
2022-09-15T10:17:46.700Z,1.20
2022-09-15T10:20:33.934Z,0.80
2022-09-15T10:23:26.278Z,0.90
2022-09-15T10:26:17.681Z,1.40
2022-09-15T10:29:15.752Z,1.30
2022-09-15T10:31:47.483Z,1.50
2022-09-15T10:34:31.533Z,1.50
2022-09-15T10:37:14.243Z,1.20
2022-09-15T10:39:55.660Z,1.00
2022-09-15T10:42:37.762Z,1.60
2022-09-15T10:45:19.510Z,1.30
2022-09-15T10:48:07.163Z,1.30
2022-09-15T10:50:54.531Z,1.60
2022-09-15T10:53:36.877Z,2.30
2022-09-15T10:56:20.822Z,1.30
2022-09-15T10:59:04.850Z,1.10
2022-09-15T11:02:00.340Z,1.30
2022-09-15T11:04:48.410Z,1.10
2022-09-15T11:07:28.980Z,1.90
2022-09-15T11:10:07.973Z,1.50
2022-09-15T11:12:53.532Z,1.30
2022-09-15T11:15:37.530Z,2.00
2022-09-15T11:18:25.368Z,1.40
2022-09-15T11:21:16.327Z,2.50
2022-09-15T11:23:54.051Z,1.40
2022-09-15T11:26:31.137Z,1.50
2022-09-15T11:29:08.875Z,1.30
2022-09-15T11:31:43.133Z,1.50
2022-09-15T11:34:20.960Z,1.30
2022-09-15T11:36:56.711Z,1.40
2022-09-15T11:39:31.756Z,1.90
2022-09-15T11:42:08.063Z,1.20
2022-09-15T11:44:41.467Z,2.40
2022-09-15T11:47:23.480Z,1.90
2022-09-15T11:49:59.243Z,1.30
2022-09-15T11:52:55.105Z,2.20
2022-09-15T11:55:36.145Z,1.10
2022-09-15T11:58:22.109Z,1.70
2022-09-15T12:00:56.957Z,1.50
2022-09-15T12:03:35.839Z,1.30
2022-09-15T12:06:13.665Z,1.60
2022-09-15T12:08:50.463Z,1.10
2022-09-15T12:11:24.577Z,2.50
2022-09-15T12:13:56.263Z,2.70
2022-09-15T12:16:27.999Z,2.00
2022-09-15T12:19:04.659Z,2.10
2022-09-15T12:21:40.736Z,1.30
2022-09-15T12:24:18.942Z,2.80
2022-09-15T12:26:50.596Z,1.60
2022-09-15T12:29:42.221Z,2.60
2022-09-15T12:32:30.668Z,3.60
2022-09-15T12:35:13.592Z,1.90
2022-09-15T12:37:47.852Z,2.30
2022-09-15T12:40:37.468Z,2.60
2022-09-15T12:43:23.187Z,3.30
2022-09-15T12:45:59.910Z,2.30
2022-09-15T12:48:32.800Z,2.40
2022-09-15T12:51:06.454Z,2.00
2022-09-15T12:53:51.544Z,2.00
2022-09-15T12:56:31.260Z,1.40
2022-09-15T12:59:07.122Z,1.80
2022-09-15T13:01:49.916Z,2.30
2022-09-15T13:04:50.577Z,3.00
2022-09-15T13:07:56.646Z,2.10
2022-09-15T13:10:40.262Z,1.90
2022-09-15T13:13:32.630Z,2.40
2022-09-15T13:16:08.172Z,1.90
2022-09-15T13:18:39.598Z,1.90
2022-09-15T13:21:16.753Z,2.10
2022-09-15T13:23:52.205Z,2.20
2022-09-15T13:26:28.189Z,2.70
2022-09-15T13:29:01.444Z,2.60
2022-09-15T13:31:41.695Z,2.60
2022-09-15T13:38:13.543Z,1.60
2022-09-15T13:41:19.373Z,1.60
2022-09-15T13:44:10.159Z,3.30
2022-09-15T13:46:53.637Z,2.40
2022-09-15T13:49:48.520Z,4.00
2022-09-15T13:52:34.022Z,2.70
2022-09-15T13:55:26.434Z,2.00
2022-09-15T14:01:00.646Z,1.90
2022-09-15T14:03:37.974Z,2.10
2022-09-15T14:06:16.463Z,1.70
2022-09-15T14:08:50.082Z,1.90
2022-09-15T14:11:27.573Z,1.60
2022-09-15T14:14:00.721Z,1.40
2022-09-15T14:16:36.895Z,2.30
2022-09-15T14:19:29.161Z,1.90
2022-09-15T14:22:00.363Z,1.70
2022-09-15T14:24:32.873Z,2.80
2022-09-15T14:27:11.415Z,1.60
2022-09-15T14:29:44.866Z,1.60
2022-09-15T14:32:18.331Z,1.50
2022-09-15T14:34:50.963Z,1.80
2022-09-15T14:37:27.632Z,1.80
2022-09-15T14:40:00.585Z,2.40
2022-09-15T14:42:35.101Z,2.10
2022-09-15T14:48:15.348Z,2.00
2022-09-15T14:50:48.376Z,1.90
2022-09-15T14:53:24.770Z,2.90
2022-09-15T14:56:04.345Z,2.50
2022-09-15T14:58:43.286Z,1.40
2022-09-15T15:01:21.386Z,1.80
2022-09-15T15:03:58.515Z,2.20
2022-09-15T15:06:35.465Z,1.70
2022-09-15T15:09:13.564Z,1.90
2022-09-15T15:11:45.634Z,1.70
2022-09-15T15:14:16.986Z,2.40
2022-09-15T15:17:02.174Z,1.50
2022-09-15T15:19:39.041Z,2.80
2022-09-15T15:22:17.204Z,2.10
2022-09-15T15:24:49.756Z,2.10
2022-09-15T15:27:42.983Z,3.80
2022-09-15T15:30:47.603Z,4.30
2022-09-15T15:33:28.604Z,3.40
2022-09-15T15:36:08.163Z,2.80
2022-09-15T15:38:47.275Z,4.00
2022-09-15T15:41:24.170Z,1.80
2022-09-15T15:44:08.199Z,2.40
2022-09-15T15:46:54.950Z,5.80
2022-09-15T15:49:29.239Z,3.70
2022-09-15T15:52:01.829Z,4.60
2022-09-15T15:54:36.133Z,5.80
2022-09-15T15:57:24.545Z,5.60
2022-09-15T15:59:59.331Z,2.80
2022-09-15T16:02:30.277Z,4.40
2022-09-15T16:05:01.075Z,5.60
2022-09-15T16:07:33.768Z,2.80
2022-09-15T16:10:05.710Z,3.10
2022-09-15T16:12:36.878Z,5.30
2022-09-15T16:15:15.003Z,3.40
2022-09-15T16:17:47.058Z,1.90
2022-09-15T16:20:19.917Z,3.00
2022-09-15T16:22:50.667Z,3.00
2022-09-15T16:25:28.921Z,2.50
2022-09-15T16:28:00.068Z,2.60
2022-09-15T16:30:30.819Z,2.40
2022-09-15T16:33:02.158Z,3.00
2022-09-15T16:35:40.401Z,3.40
2022-09-15T16:38:13.173Z,4.40
2022-09-15T16:40:44.198Z,3.80
2022-09-15T16:43:16.877Z,2.60
2022-09-15T16:45:48.775Z,2.90
2022-09-15T16:48:19.687Z,3.00
2022-09-15T16:56:13.500Z,3.60
2022-09-15T16:58:44.990Z,2.10
2022-09-15T17:01:19.263Z,2.00
2022-09-15T17:03:50.521Z,4.20
2022-09-15T17:06:22.287Z,2.10
2022-09-15T17:08:53.559Z,2.30
2022-09-15T17:11:25.558Z,3.60
2022-09-15T17:13:56.312Z,3.40
2022-09-15T17:16:28.021Z,2.80
2022-09-15T17:18:58.939Z,3.00
2022-09-15T17:21:29.738Z,1.50
2022-09-15T17:24:00.720Z,2.00
2022-09-15T17:26:31.882Z,2.00
2022-09-15T17:29:02.599Z,2.90
2022-09-15T17:31:33.330Z,2.00
2022-09-15T17:34:04.183Z,1.50
2022-09-15T17:36:37.292Z,2.80
2022-09-15T17:39:08.346Z,2.20
2022-09-15T17:41:39.163Z,2.20
2022-09-15T17:44:13.167Z,2.10
2022-09-15T17:46:44.283Z,2.80
2022-09-15T17:49:15.098Z,1.70
2022-09-15T17:51:45.791Z,1.90
2022-09-15T17:54:16.637Z,2.00
2022-09-15T17:56:47.391Z,2.60
2022-09-15T17:59:18.241Z,2.70
2022-09-15T18:01:49.705Z,2.10
2022-09-15T18:04:20.409Z,2.10
2022-09-15T18:06:51.454Z,2.30
2022-09-15T18:09:22.409Z,1.60
2022-09-15T18:14:25.146Z,2.30
2022-09-15T18:16:56.022Z,1.80
2022-09-15T18:19:26.993Z,1.70
2022-09-15T18:21:57.828Z,2.70
2022-09-15T18:24:30.087Z,2.30
2022-09-15T18:27:00.955Z,2.10
2022-09-15T18:29:32.151Z,2.70
2022-09-15T18:32:04.191Z,2.20
2022-09-15T18:34:35.267Z,3.20
2022-09-15T18:37:06.248Z,4.20
2022-09-15T18:39:37.499Z,2.50
2022-09-15T18:42:10.149Z,3.10
2022-09-15T18:44:41.009Z,1.80
2022-09-15T18:47:12.194Z,1.80
2022-09-15T18:49:43.008Z,1.80
2022-09-15T18:52:14.768Z,1.60
2022-09-15T18:54:45.996Z,2.20
2022-09-15T18:57:16.730Z,1.50
2022-09-15T18:59:48.968Z,2.00
2022-09-15T19:02:19.994Z,1.90
2022-09-15T19:04:50.900Z,2.70
2022-09-15T19:07:24.074Z,2.60
2022-09-15T19:09:59.147Z,2.30
2022-09-15T19:12:30.192Z,1.90
2022-09-15T19:15:01.242Z,1.80
2022-09-15T19:17:32.176Z,1.40
2022-09-15T19:20:03.388Z,2.20
2022-09-15T19:22:34.484Z,1.80
2022-09-15T19:25:07.220Z,2.10
2022-09-15T19:27:38.666Z,1.70
2022-09-15T19:30:12.049Z,2.10
2022-09-15T19:32:43.259Z,2.70
2022-09-15T19:35:14.236Z,2.00
2022-09-15T19:37:45.313Z,2.00
2022-09-15T19:40:17.600Z,1.50
2022-09-15T19:42:48.566Z,2.30
2022-09-15T19:45:19.512Z,1.70
2022-09-15T19:47:50.336Z,2.70
2022-09-15T19:50:21.405Z,2.40
2022-09-15T19:52:54.240Z,1.40
2022-09-15T19:55:28.806Z,2.10
2022-09-15T19:58:01.292Z,2.00
2022-09-15T20:00:32.113Z,2.20
2022-09-15T20:03:04.098Z,2.00
2022-09-15T20:05:34.846Z,1.50
2022-09-15T20:08:06.017Z,1.60
2022-09-15T20:10:39.959Z,2.10
2022-09-15T20:13:10.798Z,2.60
2022-09-15T20:15:41.526Z,3.00
2022-09-15T20:18:13.635Z,2.70
2022-09-15T20:20:44.361Z,1.90
2022-09-15T20:23:15.284Z,2.60
2022-09-15T20:25:55.174Z,5.00
2022-09-15T20:28:26.505Z,7.30
2022-09-15T20:31:14.981Z,4.70
2022-09-15T20:33:47.600Z,5.10
2022-09-15T20:36:20.708Z,7.40
2022-09-15T20:38:53.161Z,6.20
2022-09-15T20:41:26.782Z,4.40
2022-09-15T20:46:29.008Z,4.00
2022-09-15T20:48:59.742Z,5.20
2022-09-15T20:51:32.576Z,4.70
2022-09-15T20:54:04.977Z,4.60
2022-09-15T20:56:37.381Z,5.80
2022-09-15T20:59:10.758Z,4.00
2022-09-15T21:01:42.012Z,5.00
2022-09-15T21:04:13.369Z,3.40
2022-09-15T21:06:44.325Z,4.80
2022-09-15T21:09:15.376Z,4.90
2022-09-15T21:11:49.080Z,3.40
2022-09-15T21:14:22.258Z,3.60
2022-09-15T21:16:52.989Z,4.00
2022-09-15T21:19:23.671Z,7.80
2022-09-15T21:21:55.099Z,4.80
2022-09-15T21:24:25.860Z,5.00
2022-09-15T21:27:13.935Z,4.10
2022-09-15T21:29:45.219Z,6.50
2022-09-15T21:32:16.701Z,6.10
2022-09-15T21:34:48.029Z,4.50
2022-09-15T21:37:19.057Z,4.90
2022-09-15T21:39:50.370Z,5.30
2022-09-15T21:42:22.696Z,7.40
2022-09-15T21:44:54.188Z,4.30
2022-09-15T21:47:24.879Z,4.00
2022-09-15T21:49:56.035Z,4.40
2022-09-15T21:52:26.788Z,4.40
2022-09-15T21:54:59.068Z,5.30
2022-09-15T21:57:30.501Z,3.90
2022-09-15T22:00:01.157Z,4.10
2022-09-15T22:02:31.910Z,4.00
2022-09-15T22:05:03.327Z,4.20
2022-09-15T22:07:34.039Z,5.10
2022-09-15T22:10:05.060Z,3.80
2022-09-15T22:12:35.954Z,4.20
2022-09-15T22:15:08.130Z,3.90
2022-09-15T22:17:38.887Z,3.50
2022-09-15T22:20:10.615Z,4.50
2022-09-15T22:22:41.278Z,6.20
2022-09-15T22:25:12.714Z,4.30
2022-09-15T22:27:43.457Z,4.50
2022-09-15T22:30:15.043Z,5.00
2022-09-15T22:32:45.691Z,4.70
2022-09-15T22:35:17.432Z,4.50
2022-09-15T22:37:48.350Z,3.80
2022-09-15T22:40:19.204Z,5.40
2022-09-15T22:42:50.133Z,3.90
2022-09-15T22:45:21.404Z,4.30
2022-09-15T22:47:52.134Z,4.50
2022-09-15T22:50:22.757Z,4.90
2022-09-15T22:52:53.496Z,3.80
2022-09-15T22:55:25.573Z,4.50
2022-09-15T22:57:56.606Z,3.10
2022-09-15T23:00:27.884Z,3.30
2022-09-15T23:02:58.577Z,3.70
2022-09-15T23:05:29.198Z,3.40
2022-09-15T23:07:59.877Z,4.00
2022-09-15T23:10:31.013Z,3.60
2022-09-15T23:13:01.951Z,3.40
2022-09-15T23:15:35.256Z,3.50
2022-09-15T23:18:06.169Z,3.50
2022-09-15T23:20:39.595Z,3.00
2022-09-15T23:23:10.740Z,3.70
2022-09-15T23:25:41.369Z,4.20
2022-09-15T23:28:11.999Z,3.60
2022-09-15T23:30:42.750Z,3.10
2022-09-15T23:33:13.457Z,3.30
2022-09-15T23:35:44.301Z,3.50
2022-09-15T23:38:15.169Z,4.40
2022-09-15T23:40:46.621Z,3.40
2022-09-15T23:43:17.891Z,3.20
2022-09-15T23:45:50.307Z,3.10
2022-09-15T23:48:22.535Z,2.90
2022-09-15T23:50:53.364Z,3.50
2022-09-15T23:53:24.306Z,2.90
2022-09-15T23:55:55.353Z,2.30
2022-09-15T23:58:26.656Z,3.30
